Time;durP1;ratioP1;P1;durP2;ratioP2;P2;SDS_P1;SDS_P2;PMS_P1;PMS_P2;Temp;Humidity;BMP_temperature;BMP_pressure;BME280_temperature;BME280_humidity;BME280_pressure;Samples;Min_cycle;Max_cycle;Signal;HPM_P1;HPM_P2
2021/04/19 17:57:01;;;;;;;21.05;6.88;;;;;;;21.43;40.42;101657.34;5087393;27;21019;-64
2021/04/19 18:00:27;;;;;;;17.52;5.70;;;;;;;21.37;40.33;101651.44;5097022;27;680797;-57
2021/04/19 18:02:53;;;;;;;21.20;5.40;;;;;;;25.69;33.21;101642.41;5090602;28;20024;-62
2021/04/19 18:05:19;;;;;;;17.15;5.80;;;;;;;26.92;29.71;101641.00;5091138;28;20473;-56
2021/04/19 18:07:45;;;;;;;14.93;5.05;;;;;;;24.53;33.88;101651.56;5093718;28;20028;-56
2021/04/19 18:12:15;;;;;;;19.67;5.13;;;;;;;21.85;39.42;101669.50;5077720;27;20733;-72
2021/04/19 18:14:40;;;;;;;18.02;4.93;;;;;;;21.04;40.68;101662.25;5069724;28;20127;-73
2021/04/19 18:17:06;;;;;;;24.08;6.03;;;;;;;20.78;40.85;101658.22;5076438;28;20492;-73
2021/04/19 18:23:22;;;;;;;46.05;21.73;;;;;;;11.24;72.12;101724.00;5054750;28;20381;-28
2021/04/19 18:25:47;;;;;;;23.63;17.98;;;;;;;10.24;73.05;101722.34;5045991;28;20039;-27
2021/04/19 18:29:21;;;;;;;26.08;18.38;;;;;;;10.32;73.54;101715.16;5088985;27;20358;-33
2021/04/19 18:31:50;;;;;;;33.30;19.17;;;;;;;10.20;73.92;101718.81;5079935;28;20059;-29
2021/04/19 18:34:16;;;;;;;27.52;19.08;;;;;;;10.24;74.00;101722.34;5080803;28;20481;-30
2021/04/19 18:36:42;;;;;;;28.63;19.48;;;;;;;10.24;73.81;101717.03;5078961;28;20016;-30
2021/04/19 18:39:07;;;;;;;26.60;18.85;;;;;;;10.20;73.75;101724.16;5083089;28;20071;-30
2021/04/19 18:41:33;;;;;;;29.17;19.42;;;;;;;10.24;73.61;101727.66;5065278;28;20043;-29
2021/04/19 18:43:58;;;;;;;29.77;21.40;;;;;;;10.26;73.68;101726.72;5085802;28;20024;-29
2021/04/19 18:46:25;;;;;;;29.95;20.23;;;;;;;10.23;73.56;101725.88;5078506;28;20042;-29
2021/04/19 18:48:53;;;;;;;30.17;20.50;;;;;;;10.19;73.69;101732.13;5078545;28;20161;-29
2021/04/19 18:51:22;;;;;;;30.08;20.95;;;;;;;10.05;73.86;101730.47;5080025;28;20024;-29
2021/04/19 18:53:52;;;;;;;28.60;21.13;;;;;;;10.09;73.81;101732.22;5076932;28;20017;-30
2021/04/19 18:56:19;;;;;;;31.38;21.02;;;;;;;10.05;74.04;101742.84;5076183;28;20462;-30
2021/04/19 18:58:44;;;;;;;31.60;21.52;;;;;;;9.95;73.83;101736.75;5079128;28;20047;-29
2021/04/19 19:01:10;;;;;;;30.17;20.63;;;;;;;9.90;73.92;101740.31;5083470;28;20524;-30
2021/04/19 19:03:35;;;;;;;30.60;21.33;;;;;;;9.81;74.18;101740.34;5078051;28;20024;-30
2021/04/19 19:06:00;;;;;;;28.63;21.05;;;;;;;9.79;74.09;101740.38;5072359;28;20073;-29
2021/04/19 19:08:28;;;;;;;30.55;19.80;;;;;;;9.70;73.94;101744.84;5072772;28;20037;-29
2021/04/19 19:10:54;;;;;;;28.65;19.48;;;;;;;9.70;74.00;101744.84;5068068;28;20051;-29
2021/04/19 19:13:19;;;;;;;28.00;20.10;;;;;;;9.66;73.83;101744.88;5077172;28;20040;-29
2021/04/19 19:15:44;;;;;;;29.58;20.77;;;;;;;9.64;73.60;101744.00;5073910;28;20036;-29
2021/04/19 19:18:10;;;;;;;27.90;20.02;;;;;;;9.66;73.84;101746.63;5076061;28;20042;-30
2021/04/19 19:20:35;;;;;;;29.13;19.25;;;;;;;9.62;73.94;101745.78;5068351;28;20434;-29
2021/04/19 19:23:01;;;;;;;30.92;19.55;;;;;;;9.55;73.66;101752.91;5073419;28;20149;-29
2021/04/19 19:25:26;;;;;;;29.75;19.83;;;;;;;9.43;74.02;101747.66;5067157;28;20442;-29
2021/04/19 19:27:51;;;;;;;31.77;22.00;;;;;;;9.39;74.19;101756.53;5070813;28;20024;-29
2021/04/19 19:30:17;;;;;;;32.92;20.80;;;;;;;9.35;74.32;101760.06;5080354;28;20061;-29
2021/04/19 19:32:43;;;;;;;31.55;20.30;;;;;;;9.30;74.29;101750.38;5079196;28;20050;-29
2021/04/19 19:35:09;;;;;;;29.58;19.20;;;;;;;9.30;74.52;101749.47;5072271;28;20119;-29
2021/04/19 19:37:35;;;;;;;30.80;21.40;;;;;;;9.29;74.52;101748.59;5072376;28;20030;-29
2021/04/19 19:40:00;;;;;;;34.45;22.80;;;;;;;9.30;74.29;101752.13;5062637;28;20036;-30
2021/04/19 19:42:26;;;;;;;31.83;21.75;;;;;;;9.22;74.67;101745.94;5060431;28;20028;-29
2021/04/19 19:44:51;;;;;;;34.72;24.08;;;;;;;9.20;74.47;101753.94;5053192;28;20074;-29
2021/04/19 19:47:16;;;;;;;32.25;22.15;;;;;;;9.10;74.60;101750.44;5067223;28;20055;-30
2021/04/19 19:49:42;;;;;;;31.38;21.52;;;;;;;9.04;74.61;101748.69;5065095;28;20046;-29
2021/04/19 19:52:07;;;;;;;30.17;21.80;;;;;;;9.03;74.75;101749.53;5063707;28;20059;-29
2021/04/19 19:54:33;;;;;;;31.50;21.73;;;;;;;9.04;74.79;101753.09;5065990;28;20031;-30
2021/04/19 19:56:58;;;;;;;31.15;21.73;;;;;;;8.94;74.86;101746.91;5058293;28;20756;-30
2021/04/19 19:59:23;;;;;;;33.78;21.63;;;;;;;8.89;74.99;101744.28;5063649;28;20127;-30
2021/04/19 20:01:49;;;;;;;28.90;20.38;;;;;;;8.93;74.98;101740.75;5066031;28;20103;-29
2021/04/19 20:04:14;;;;;;;32.42;22.05;;;;;;;8.88;74.95;101744.28;5067749;28;20036;-29
2021/04/19 20:06:39;;;;;;;29.98;21.20;;;;;;;8.87;74.92;101745.16;5061299;28;20028;-30
2021/04/19 20:09:06;;;;;;;29.80;20.42;;;;;;;8.89;75.03;101748.69;5067289;28;20032;-29
2021/04/19 20:11:31;;;;;;;27.38;20.33;;;;;;;8.82;75.20;101742.53;5060393;28;20453;-29
2021/04/19 20:13:56;;;;;;;28.88;20.58;;;;;;;8.74;75.27;101747.84;5064039;28;20024;-29
2021/04/19 20:16:22;;;;;;;29.73;20.13;;;;;;;8.73;75.01;101750.50;5047446;28;20039;-29
2021/04/19 20:18:47;;;;;;;29.30;22.30;;;;;;;8.74;75.19;101746.97;5065505;28;20067;-30
2021/04/19 20:21:12;;;;;;;31.50;22.50;;;;;;;8.80;75.04;101749.63;5063278;28;20052;-33
2021/04/19 20:23:38;;;;;;;29.73;22.05;;;;;;;8.81;75.00;101743.41;5065763;28;20017;-29
2021/04/19 20:26:03;;;;;;;30.02;21.55;;;;;;;8.83;74.72;101741.63;5059318;28;20040;-30
2021/04/19 20:28:29;;;;;;;31.60;22.23;;;;;;;8.76;75.05;101747.84;5067829;28;20214;-29
2021/04/19 20:30:54;;;;;;;30.63;21.67;;;;;;;8.79;74.98;101742.56;5065972;28;20030;-29
2021/04/19 20:33:19;;;;;;;30.17;22.33;;;;;;;8.69;75.37;101749.63;5065785;28;20015;-30
2021/04/19 20:35:45;;;;;;;31.50;22.27;;;;;;;8.68;75.06;101745.22;5062244;28;20105;-29
2021/04/19 20:38:11;;;;;;;29.92;21.08;;;;;;;8.64;75.18;101743.44;5066192;28;20039;-30
2021/04/19 20:40:36;;;;;;;29.27;21.20;;;;;;;8.60;75.08;101751.38;5060145;28;20071;-28
2021/04/19 20:43:02;;;;;;;28.55;21.15;;;;;;;8.57;75.21;101751.41;5063445;28;20032;-29
2021/04/19 20:45:27;;;;;;;29.08;20.60;;;;;;;8.56;74.94;101740.81;5058780;28;20077;-28
2021/04/19 20:47:52;;;;;;;27.52;21.65;;;;;;;8.55;75.02;101741.66;5066067;28;20069;-29
2021/04/19 20:50:18;;;;;;;31.17;23.65;;;;;;;8.52;75.00;101741.66;5061814;28;20048;-29
2021/04/19 20:52:44;;;;;;;49.30;38.00;;;;;;;8.51;75.29;101742.53;5057382;28;20029;-30
2021/04/19 20:55:10;;;;;;;45.13;37.45;;;;;;;8.46;75.52;101743.41;5057897;28;20096;-29
2021/04/19 20:57:35;;;;;;;34.65;25.23;;;;;;;8.47;75.72;101739.91;5061732;28;20017;-29
2021/04/19 21:00:02;;;;;;;34.50;24.83;;;;;;;8.50;75.58;101740.75;5053585;28;20690;-29
2021/04/19 21:02:28;;;;;;;34.97;25.27;;;;;;;8.40;75.28;101735.50;5062581;28;20020;-35
2021/04/19 21:04:53;;;;;;;30.58;21.77;;;;;;;8.36;75.79;101739.03;5062384;28;20109;-30
2021/04/19 21:07:18;;;;;;;32.13;22.42;;;;;;;8.34;76.14;101736.38;5059017;28;20024;-30
2021/04/19 21:09:46;;;;;;;30.52;21.65;;;;;;;8.31;75.83;101736.34;5061939;28;20343;-29
2021/04/19 21:12:11;;;;;;;29.08;20.65;;;;;;;8.29;75.93;101738.09;5061313;28;20083;-29
2021/04/19 21:14:37;;;;;;;23.65;17.02;;;;;;;8.21;75.90;101735.47;5063283;28;20486;-30
2021/04/19 21:17:02;;;;;;;20.30;14.20;;;;;;;8.17;75.45;101735.47;5063249;28;20161;-29
2021/04/19 21:19:27;;;;;;;21.35;16.38;;;;;;;8.12;75.15;101740.78;5062151;28;20040;-29
2021/04/19 21:21:53;;;;;;;20.67;15.60;;;;;;;8.07;75.19;101732.81;5057251;28;20655;-29
2021/04/19 21:24:18;;;;;;;21.85;16.05;;;;;;;8.15;75.10;101740.78;5057158;28;20122;-29
2021/04/19 21:26:43;;;;;;;27.05;18.08;;;;;;;8.01;74.87;101738.13;5059362;28;20103;-29
2021/04/19 21:29:09;;;;;;;26.08;18.65;;;;;;;7.98;75.16;101741.63;5061792;28;20073;-29
2021/04/19 21:31:34;;;;;;;30.58;21.50;;;;;;;7.99;75.44;101740.78;5062173;28;20160;-29
2021/04/19 21:33:59;;;;;;;25.55;19.90;;;;;;;7.96;74.93;101738.09;5061371;28;20024;-30
2021/04/19 21:36:25;;;;;;;29.50;21.15;;;;;;;7.87;74.80;101740.72;5061671;28;20083;-29
2021/04/19 21:38:50;;;;;;;32.35;22.33;;;;;;;7.82;75.16;101740.72;5067007;28;20065;-29
2021/04/19 21:41:15;;;;;;;31.92;24.08;;;;;;;7.84;75.07;101743.38;5065265;28;20414;-29
2021/04/19 21:43:41;;;;;;;32.33;22.33;;;;;;;7.77;74.84;101742.47;5061765;28;20069;-30
2021/04/19 21:46:06;;;;;;;29.63;22.05;;;;;;;7.68;75.08;101735.41;5056597;28;20377;-28
2021/04/19 21:48:31;;;;;;;31.73;21.52;;;;;;;7.64;75.28;101749.50;5064417;28;20097;-30
2021/04/19 21:50:57;;;;;;;32.58;23.05;;;;;;;7.77;75.78;101742.47;5066247;28;20075;-30
2021/04/19 21:53:22;;;;;;;32.50;22.67;;;;;;;7.76;75.00;101743.34;5064366;28;20512;-29
2021/04/19 21:55:48;;;;;;;33.03;22.70;;;;;;;7.82;75.12;101743.38;5070613;28;20024;-29
2021/04/19 21:58:16;;;;;;;30.05;21.92;;;;;;;7.76;74.56;101746.00;5074621;28;20043;-30
2021/04/19 22:00:42;;;;;;;31.30;21.63;;;;;;;7.80;74.62;101738.94;5064716;28;20115;-30
2021/04/19 22:03:14;;;;;;;30.67;22.08;;;;;;;7.72;74.80;101746.88;5072248;28;20080;-29
2021/04/19 22:05:40;;;;;;;31.07;21.17;;;;;;;7.59;74.90;101748.63;5064753;28;20020;-29
2021/04/19 22:08:06;;;;;;;32.22;21.73;;;;;;;7.59;74.54;101745.97;5059269;28;20099;-29
2021/04/19 22:10:31;;;;;;;29.10;20.10;;;;;;;7.63;74.60;101747.72;5061916;28;20055;-30
2021/04/19 22:12:57;;;;;;;32.03;20.73;;;;;;;7.63;74.88;101742.44;5070492;28;20024;-29
2021/04/19 22:15:22;;;;;;;29.42;20.70;;;;;;;7.58;75.22;101746.84;5072774;28;20229;-29
2021/04/19 22:17:47;;;;;;;29.35;22.27;;;;;;;7.60;74.70;101742.44;5067540;28;20028;-29
2021/04/19 22:20:13;;;;;;;32.30;21.52;;;;;;;7.55;74.67;101738.88;5072821;28;20457;-29
2021/04/19 22:22:42;;;;;;;30.67;20.85;;;;;;;7.49;74.96;101747.69;5068519;28;20054;-29
2021/04/19 22:25:09;;;;;;;25.98;19.80;;;;;;;7.48;74.62;101748.59;5073219;28;20107;-30
2021/04/19 22:27:35;;;;;;;31.33;21.92;;;;;;;7.45;74.54;101744.16;5068886;28;20136;-29
2021/04/19 22:30:00;;;;;;;30.20;22.20;;;;;;;7.49;75.11;101748.59;5067673;28;20507;-29
2021/04/19 22:32:25;;;;;;;31.63;20.95;;;;;;;7.46;75.00;101750.34;5058380;28;20046;-30
2021/04/19 22:34:51;;;;;;;32.60;23.35;;;;;;;7.49;75.12;101750.34;5074228;28;20077;-30
2021/04/19 22:37:16;;;;;;;30.83;22.60;;;;;;;7.44;74.84;101747.69;5070741;28;20114;-29
2021/04/19 22:39:41;;;;;;;34.13;23.48;;;;;;;7.47;75.43;101747.69;5065375;28;20056;-29
2021/04/19 22:42:07;;;;;;;32.72;22.90;;;;;;;7.52;75.15;101747.69;5073606;28;20110;-30
2021/04/19 22:44:32;;;;;;;31.05;21.85;;;;;;;7.43;75.41;101745.03;5078511;28;20445;-30
2021/04/19 22:46:58;;;;;;;31.60;22.38;;;;;;;7.47;75.52;101747.69;5062796;28;20024;-29
2021/04/19 22:49:23;;;;;;;31.55;21.67;;;;;;;7.48;75.35;101749.44;5070731;28;20031;-29
2021/04/19 22:51:48;;;;;;;30.85;21.40;;;;;;;7.44;75.33;101747.69;5071285;28;20038;-29
2021/04/19 22:54:14;;;;;;;27.95;20.85;;;;;;;7.47;75.11;101750.34;5063445;28;20470;-30
2021/04/19 22:56:39;;;;;;;30.10;21.23;;;;;;;7.48;75.17;101743.28;5059371;28;20078;-30
2021/04/19 22:59:05;;;;;;;31.27;21.67;;;;;;;7.55;75.71;101747.72;5064952;28;20016;-29
2021/04/19 23:01:30;;;;;;;30.08;21.80;;;;;;;7.59;75.44;101748.63;5072580;28;20028;-29
2021/04/19 23:03:55;;;;;;;30.58;22.65;;;;;;;7.61;75.35;101739.78;5071285;28;20173;-30
2021/04/19 23:06:21;;;;;;;33.45;23.02;;;;;;;7.61;75.62;101738.91;5067047;28;20456;-30
2021/04/19 23:08:46;;;;;;;31.10;22.05;;;;;;;7.57;75.69;101739.78;5075643;28;20032;-29
2021/04/19 23:11:11;;;;;;;29.90;21.60;;;;;;;7.63;75.76;101739.78;5073981;28;20469;-30
2021/04/19 23:13:37;;;;;;;30.42;21.40;;;;;;;7.65;75.59;101735.38;5068546;28;20226;-29
2021/04/19 23:16:02;;;;;;;30.67;22.20;;;;;;;7.67;75.39;101738.91;5069096;28;20028;-28
2021/04/19 23:18:28;;;;;;;32.78;22.38;;;;;;;7.59;75.54;101733.59;5060841;28;20457;-29
2021/04/19 23:20:53;;;;;;;34.67;23.23;;;;;;;7.56;75.92;101740.63;5065868;28;20028;-29
2021/04/19 23:23:18;;;;;;;34.08;22.52;;;;;;;7.51;75.90;101740.63;5078316;28;20096;-29
2021/04/19 23:25:44;;;;;;;33.25;22.20;;;;;;;7.51;76.07;101735.34;5064559;28;20024;-29
2021/04/19 23:28:09;;;;;;;29.98;21.52;;;;;;;7.43;76.19;101735.31;5072086;28;20042;-29
2021/04/19 23:30:34;;;;;;;29.95;21.02;;;;;;;7.45;75.46;101728.25;5065278;28;20477;-29
2021/04/19 23:33:00;;;;;;;27.92;20.00;;;;;;;7.40;75.65;101730.00;5081990;28;20020;-30
2021/04/19 23:35:25;;;;;;;29.08;21.15;;;;;;;7.32;75.67;101727.31;5072367;28;20036;-30
2021/04/19 23:37:51;;;;;;;27.75;20.45;;;;;;;7.32;75.33;101726.44;5082353;28;20027;-29
2021/04/19 23:40:17;;;;;;;27.33;19.65;;;;;;;7.26;75.22;101727.31;5066673;28;20041;-29
2021/04/19 23:42:42;;;;;;;30.63;20.33;;;;;;;7.25;75.75;101721.13;5069732;28;20060;-30
2021/04/19 23:45:09;;;;;;;27.73;20.20;;;;;;;7.29;75.36;101724.69;5084317;28;20431;-30
2021/04/19 23:47:34;;;;;;;28.98;20.75;;;;;;;7.26;76.03;101714.94;5073220;28;20417;-29
2021/04/19 23:49:59;;;;;;;30.02;21.33;;;;;;;7.32;75.63;101721.13;5062056;28;20051;-29
2021/04/19 23:52:25;;;;;;;30.02;20.95;;;;;;;7.27;75.73;101716.72;5070812;28;20015;-29
2021/04/19 23:54:50;;;;;;;30.23;20.45;;;;;;;7.23;75.83;101711.41;5069405;28;20238;-30
2021/04/19 23:57:16;;;;;;;29.98;21.60;;;;;;;7.31;75.73;101714.09;5073802;28;20438;-29
2021/04/19 23:59:42;;;;;;;28.00;20.25;;;;;;;7.23;75.19;101714.06;5072822;28;20032;-29
